CDT,Max TemperatureF,Mean TemperatureF,Min TemperatureF,Max Dew PointF,MeanDew PointF,Min DewpointF,Max Humidity, Mean Humidity, Min Humidity, Max Sea Level PressureIn, Mean Sea Level PressureIn, Min Sea Level PressureIn, Max VisibilityMiles, Mean VisibilityMiles, Min VisibilityMiles, Max Wind SpeedMPH, Mean Wind SpeedMPH, Max Gust SpeedMPH,PrecipitationIn, CloudCover, Events, WindDirDegrees
2012-9-1,89,84,78,79,76,73,87,76,70,30.10,30.04,30.00,10,9,2,18,11,29,0.17,4,Rain,181
2012-9-2,93,88,84,79,76,75,84,70,57,30.07,30.02,29.96,10,10,10,14,10,,0.00,1,,178
2012-9-3,93,88,84,78,76,74,79,72,61,30.03,29.97,29.91,10,10,10,14,10,20,0.00,3,,176
2012-9-4,93,88,84,77,75,74,79,70,55,29.98,29.94,29.88,10,10,10,15,12,21,0.00,2,,185
2012-9-5,93,88,84,79,76,74,84,70,57,29.93,29.89,29.85,10,10,10,15,11,21,0.00,1,,190
2012-9-6,93,87,81,78,76,74,88,73,55,29.96,29.90,29.87,10,10,9,15,9,22,0.00,2,,198
2012-9-7,93,87,81,79,76,73,88,71,54,29.93,29.88,29.82,10,10,9,13,8,,0.00,1,,194
2012-9-8,95,87,77,77,73,66,90,69,47,30.01,29.91,29.83,10,10,7,18,11,25,0.00,3,,303
2012-9-9,91,79,68,67,62,54,87,61,29,30.11,30.04,30.00,10,10,8,15,7,18,0.00,0,,42
2012-9-10,90,78,66,66,62,57,87,64,33,30.10,30.05,30.01,10,10,9,15,6,,0.00,0,,54
2012-9-11,91,78,66,74,68,62,87,69,50,30.06,30.02,29.98,10,10,10,17,8,,0.00,2,,74
2012-9-12,90,84,77,77,74,71,90,76,59,30.06,30.00,29.95,10,10,7,15,5,24,0.02,2,Thunderstorm,152
2012-9-13,87,80,75,77,73,70,90,79,61,30.11,30.04,29.98,10,10,4,17,7,25,0.09,3,Rain-Thunderstorm,120
2012-9-14,90,81,73,75,72,70,91,82,52,30.13,30.10,30.06,10,9,5,18,8,18,0.09,3,Rain-Thunderstorm,20
2012-9-15,89,78,71,73,71,68,94,86,59,30.14,30.10,30.04,10,6,1,16,9,23,0.51,6,Rain-Thunderstorm,4
2012-9-16,86,79,71,75,70,67,93,83,59,30.06,29.98,29.92,10,7,2,15,6,23,0.34,4,Rain,40
2012-9-17,84,77,70,70,69,66,94,78,55,29.92,29.86,29.79,10,9,2,10,6,,0.01,5,Rain,342
2012-9-18,90,79,69,70,67,64,93,71,45,30.01,29.95,29.87,10,9,3,13,4,22,0.00,0,,353
2012-9-19,89,79,70,71,68,66,87,73,51,30.10,30.05,30.01,10,10,6,13,5,,0.00,2,,62
2012-9-20,89,76,64,65,61,55,88,62,31,30.08,30.03,29.98,10,10,9,10,4,,0.00,0,,86
2012-9-21,88,74,61,70,64,57,87,69,44,30.01,29.98,29.93,10,10,10,14,6,18,0.00,0,,70
2012-9-22,93,80,69,74,69,63,93,73,38,30.09,30.04,29.98,10,8,3,10,5,,0.00,0,,66
2012-9-23,91,82,72,75,72,69,91,74,50,30.16,30.12,30.07,10,10,8,14,5,20,0.00,0,,98
2012-9-24,90,80,71,73,71,68,91,72,53,30.15,30.09,30.04,10,9,5,14,5,,0.00,1,,139
2012-9-25,91,85,80,72,71,69,74,64,50,30.06,30.01,29.96,10,10,10,15,11,20,0.00,0,,158
2012-9-26,91,84,77,74,72,70,83,69,54,30.03,29.99,29.96,10,10,9,16,10,21,0.00,2,Thunderstorm,137
2012-9-27,91,82,73,75,73,69,90,74,59,30.06,30.01,29.96,10,10,7,15,8,22,0.00,2,,94
2012-9-28,87,80,75,75,74,72,91,82,67,30.02,29.97,29.91,10,9,2,12,5,,0.06,2,Rain,117
2012-9-29,84,80,75,76,74,72,94,87,72,29.92,29.83,29.72,10,6,0,21,7,28,3.58,7,Fog-Rain-Thunderstorm,152
2012-9-30,81,75,66,75,67,59,94,80,62,29.84,29.73,29.68,10,9,3,28,15,37,0.00,6,Rain,308